Time;durP1;ratioP1;P1;durP2;ratioP2;P2;SDS_P1;SDS_P2;PMS_P1;PMS_P2;Temp;Humidity;BMP_temperature;BMP_pressure;BME280_temperature;BME280_humidity;BME280_pressure;Samples;Min_cycle;Max_cycle;Signal;HPM_P1;HPM_P2
2022/06/01 00:02:18;;;;;;;3.40;3.10;;;;;;;;;;5021967;28;20201;-54
2022/06/01 00:04:44;;;;;;;4.00;3.60;;;;;;;;;;5020704;28;20197;-54
2022/06/01 00:07:11;;;;;;;3.67;3.37;;;;;;;;;;5023897;28;20186;-52
2022/06/01 00:09:37;;;;;;;3.73;3.43;;;;;;;;;;5018938;28;20197;-54
2022/06/01 00:12:03;;;;;;;4.10;3.73;;;;;;;;;;5021071;28;20222;-52
2022/06/01 00:14:29;;;;;;;3.80;3.50;;;;;;;;;;5000082;28;20452;-53
2022/06/01 00:16:57;;;;;;;3.50;3.20;;;;;;;;;;5025690;28;20613;-53
2022/06/01 00:19:23;;;;;;;4.57;4.17;;;;;;;;;;4999989;28;20186;-55
2022/06/01 00:24:37;;;;;;;4.37;4.07;;;;;;;;;;5016052;28;20528;-52
2022/06/01 00:27:03;;;;;;;6.13;4.10;;;;;;;;;;5022734;28;20633;-54
2022/06/01 00:29:29;;;;;;;4.77;4.30;;;;;;;;;;4999490;28;20217;-55
2022/06/01 00:31:55;;;;;;;4.83;4.43;;;;;;;;;;5022021;28;20186;-54
2022/06/01 00:34:21;;;;;;;4.27;3.97;;;;;;;;;;5019876;28;20174;-52
2022/06/01 00:36:47;;;;;;;4.53;3.97;;;;;;;;;;5024174;28;20179;-55
2022/06/01 00:39:13;;;;;;;4.40;4.10;;;;;;;;;;5022071;28;20174;-55
2022/06/01 00:41:39;;;;;;;6.10;5.50;;;;;;;;;;5018188;28;20190;-55
2022/06/01 00:44:05;;;;;;;4.67;4.23;;;;;;;;;;5003752;28;20516;-53
2022/06/01 00:46:32;;;;;;;4.97;4.47;;;;;;;;;;5007535;28;20178;-53
2022/06/01 00:49:00;;;;;;;5.03;4.63;;;;;;;;;;5008884;28;20197;-55
2022/06/01 00:51:27;;;;;;;5.27;4.87;;;;;;;;;;5025761;28;20186;-54
2022/06/01 00:53:54;;;;;;;5.00;4.60;;;;;;;;;;5021726;28;20177;-50
2022/06/01 00:56:21;;;;;;;5.10;4.70;;;;;;;;;;5019964;28;20180;-53
2022/06/01 00:58:49;;;;;;;4.70;4.30;;;;;;;;;;5023609;28;20588;-52
2022/06/01 01:01:17;;;;;;;4.87;4.37;;;;;;;;;;5020346;28;20174;-53
2022/06/01 01:03:45;;;;;;;5.63;4.87;;;;;;;;;;5024606;28;20547;-53
2022/06/01 01:06:17;;;;;;;5.10;4.70;;;;;;;;;;5005461;28;20214;-52
2022/06/01 01:08:44;;;;;;;5.13;4.63;;;;;;;;;;5022922;28;20233;-53
2022/06/01 01:11:12;;;;;;;5.30;4.80;;;;;;;;;;5001902;28;20228;-53
2022/06/01 01:13:40;;;;;;;5.90;5.17;;;;;;;;;;5021703;28;20182;-53
2022/06/01 01:16:07;;;;;;;5.63;5.13;;;;;;;;;;5004846;28;20655;-52
2022/06/01 01:18:39;;;;;;;5.50;4.67;;;;;;;;;;5022338;28;20719;-52
2022/06/01 01:21:20;;;;;;;6.27;5.40;;;;;;;;;;5019010;28;20382;-53
2022/06/01 01:23:49;;;;;;;6.20;5.57;;;;;;;;;;5024034;28;20195;-49
2022/06/01 01:26:16;;;;;;;5.63;5.13;;;;;;;;;;5002913;28;20225;-53
2022/06/01 01:28:42;;;;;;;5.43;5.00;;;;;;;;;;5023511;28;20231;-52
2022/06/01 01:31:16;;;;;;;5.20;4.70;;;;;;;;;;5024706;28;20189;-50
2022/06/01 01:33:43;;;;;;;5.70;5.17;;;;;;;;;;5007715;28;20662;-52
2022/06/01 01:36:10;;;;;;;6.03;5.50;;;;;;;;;;5006105;28;20201;-53
2022/06/01 01:38:42;;;;;;;5.40;4.90;;;;;;;;;;5020893;28;20768;-53
2022/06/01 01:41:13;;;;;;;6.33;5.70;;;;;;;;;;5006594;28;20320;-52
2022/06/01 01:43:45;;;;;;;5.30;4.80;;;;;;;;;;5025024;28;20186;-53
2022/06/01 01:46:11;;;;;;;5.87;5.27;;;;;;;;;;5005683;28;20201;-53
2022/06/01 01:48:37;;;;;;;5.83;5.33;;;;;;;;;;5022293;28;20193;-53
2022/06/01 01:51:05;;;;;;;6.03;5.53;;;;;;;;;;5024220;28;20507;-52
2022/06/01 01:53:32;;;;;;;6.63;5.77;;;;;;;;;;5006641;28;20202;-52
2022/06/01 01:56:11;;;;;;;5.97;5.47;;;;;;;;;;5020696;28;20181;-51
2022/06/01 01:58:56;;;;;;;6.60;6.00;;;;;;;;;;5022281;28;20185;-50
2022/06/01 02:01:25;;;;;;;5.80;5.20;;;;;;;;;;5022397;28;20758;-50
2022/06/01 02:03:57;;;;;;;5.97;5.47;;;;;;;;;;5019753;28;20651;-52
2022/06/01 02:06:36;;;;;;;6.93;6.33;;;;;;;;;;5026093;28;20683;-52
2022/06/01 02:09:07;;;;;;;6.00;5.40;;;;;;;;;;5023625;28;20186;-52
2022/06/01 02:14:26;;;;;;;6.70;6.00;;;;;;;;;;5017726;28;20259;-51
2022/06/01 02:17:13;;;;;;;6.50;5.90;;;;;;;;;;5019901;28;20209;-50
2022/06/01 02:19:42;;;;;;;5.97;5.37;;;;;;;;;;4997804;28;20189;-49
2022/06/01 02:22:10;;;;;;;6.33;5.83;;;;;;;;;;5001312;28;20182;-53
2022/06/01 02:24:37;;;;;;;6.47;5.83;;;;;;;;;;5001772;28;20202;-52
2022/06/01 02:27:03;;;;;;;6.10;5.50;;;;;;;;;;5002528;28;20182;-51
2022/06/01 02:29:31;;;;;;;6.40;5.90;;;;;;;;;;5019486;28;20753;-53
2022/06/01 02:31:58;;;;;;;7.60;5.93;;;;;;;;;;5019484;28;20204;-53
2022/06/01 02:34:25;;;;;;;6.17;5.13;;;;;;;;;;4999442;28;20174;-53
2022/06/01 02:36:52;;;;;;;5.83;5.27;;;;;;;;;;5002072;28;20213;-53
2022/06/01 02:39:19;;;;;;;6.23;5.63;;;;;;;;;;5017283;28;20220;-51
2022/06/01 02:44:30;;;;;;;6.10;5.50;;;;;;;;;;5019116;28;20249;-53
2022/06/01 02:46:57;;;;;;;5.30;4.80;;;;;;;;;;5021995;28;20276;-52
2022/06/01 02:49:24;;;;;;;5.83;5.33;;;;;;;;;;5016294;28;20178;-51
2022/06/01 02:51:50;;;;;;;5.23;4.77;;;;;;;;;;5020109;28;20261;-49
2022/06/01 02:54:16;;;;;;;7.57;6.97;;;;;;;;;;5017389;28;20186;-53
2022/06/01 02:56:43;;;;;;;5.57;5.13;;;;;;;;;;5021115;28;20178;-53
2022/06/01 02:59:09;;;;;;;5.87;5.37;;;;;;;;;;5022741;28;20191;-53
2022/06/01 03:01:36;;;;;;;5.87;5.33;;;;;;;;;;5021684;28;20190;-53
2022/06/01 03:04:03;;;;;;;5.20;4.80;;;;;;;;;;5005278;28;20196;-49
2022/06/01 03:06:29;;;;;;;5.77;5.27;;;;;;;;;;5021584;28;20205;-51
2022/06/01 03:08:55;;;;;;;6.23;5.73;;;;;;;;;;5001407;28;20239;-52
2022/06/01 03:11:22;;;;;;;5.43;4.93;;;;;;;;;;5021691;28;20231;-50
2022/06/01 03:13:48;;;;;;;6.13;5.30;;;;;;;;;;5007207;28;20390;-53
2022/06/01 03:16:14;;;;;;;6.77;6.13;;;;;;;;;;4984891;28;20177;-53
2022/06/01 03:18:40;;;;;;;6.17;5.40;;;;;;;;;;5021753;28;20185;-52
2022/06/01 03:21:06;;;;;;;5.20;4.80;;;;;;;;;;5020721;28;20269;-51
2022/06/01 03:23:32;;;;;;;5.40;4.90;;;;;;;;;;5025305;28;20273;-52
2022/06/01 03:25:59;;;;;;;5.90;5.40;;;;;;;;;;5019652;28;20225;-51
2022/06/01 03:28:25;;;;;;;6.00;5.40;;;;;;;;;;5021011;28;20186;-52
2022/06/01 03:30:51;;;;;;;4.70;4.30;;;;;;;;;;5014509;28;20252;-52
2022/06/01 03:33:18;;;;;;;6.90;6.37;;;;;;;;;;5020291;28;20333;-52
2022/06/01 03:35:44;;;;;;;5.87;5.37;;;;;;;;;;5017309;28;20182;-51
2022/06/01 03:38:10;;;;;;;7.17;5.03;;;;;;;;;;5015885;28;20209;-52
2022/06/01 03:40:37;;;;;;;5.20;4.73;;;;;;;;;;5005758;28;20182;-52
2022/06/01 03:43:04;;;;;;;5.63;5.13;;;;;;;;;;5024871;28;20690;-48
2022/06/01 03:48:15;;;;;;;5.63;5.13;;;;;;;;;;5024318;28;20285;-52
2022/06/01 03:50:44;;;;;;;5.73;5.13;;;;;;;;;;5017543;28;20573;-52
2022/06/01 03:53:10;;;;;;;5.57;5.07;;;;;;;;;;5017331;28;20185;-50
2022/06/01 03:55:36;;;;;;;5.40;4.90;;;;;;;;;;5013775;28;20862;-52
2022/06/01 03:58:02;;;;;;;6.27;4.87;;;;;;;;;;5025008;28;20300;-53
2022/06/01 04:00:29;;;;;;;5.00;4.50;;;;;;;;;;5017367;28;20240;-52
2022/06/01 04:02:55;;;;;;;4.90;4.40;;;;;;;;;;5023331;28;20181;-50
2022/06/01 04:05:22;;;;;;;5.33;4.93;;;;;;;;;;5020411;28;20202;-52
2022/06/01 04:07:48;;;;;;;5.03;4.63;;;;;;;;;;5005719;28;20700;-50
2022/06/01 04:10:14;;;;;;;5.03;4.63;;;;;;;;;;5000507;28;20630;-52
2022/06/01 04:12:40;;;;;;;5.23;4.77;;;;;;;;;;5026509;28;20663;-52
2022/06/01 04:15:08;;;;;;;5.30;4.80;;;;;;;;;;4985730;28;20190;-51
2022/06/01 04:17:34;;;;;;;5.57;4.73;;;;;;;;;;5012878;28;20627;-52
2022/06/01 04:20:01;;;;;;;5.27;4.77;;;;;;;;;;5019675;28;20203;-53
2022/06/01 04:22:27;;;;;;;6.27;5.00;;;;;;;;;;5020610;28;20512;-53
2022/06/01 04:24:53;;;;;;;5.17;4.20;;;;;;;;;;5019765;28;20552;-53
2022/06/01 04:27:19;;;;;;;6.43;5.87;;;;;;;;;;5026227;28;20628;-53
2022/06/01 04:29:45;;;;;;;5.20;4.80;;;;;;;;;;5019869;28;20514;-51
2022/06/01 04:32:13;;;;;;;5.27;4.77;;;;;;;;;;5019250;28;20441;-52
2022/06/01 04:34:39;;;;;;;5.47;4.97;;;;;;;;;;5001512;28;20395;-53
2022/06/01 04:37:05;;;;;;;4.40;4.10;;;;;;;;;;5021266;28;20292;-53
2022/06/01 04:39:31;;;;;;;4.90;4.50;;;;;;;;;;5018214;28;20240;-54
2022/06/01 04:41:57;;;;;;;5.33;4.83;;;;;;;;;;5017184;28;20182;-52
2022/06/01 04:44:24;;;;;;;5.27;4.43;;;;;;;;;;5014653;28;20632;-52
2022/06/01 04:46:50;;;;;;;5.27;4.77;;;;;;;;;;5018341;28;20177;-51
2022/06/01 04:49:16;;;;;;;5.00;4.50;;;;;;;;;;5022858;28;20178;-54
2022/06/01 04:51:42;;;;;;;5.13;3.83;;;;;;;;;;5020198;28;20259;-54
2022/06/01 04:54:08;;;;;;;4.80;4.37;;;;;;;;;;5020092;28;20194;-53
2022/06/01 04:56:35;;;;;;;4.50;4.10;;;;;;;;;;5003260;28;20564;-53
2022/06/01 04:59:01;;;;;;;4.80;4.40;;;;;;;;;;5006249;28;20200;-54
2022/06/01 05:01:27;;;;;;;4.40;4.00;;;;;;;;;;5001944;28;20186;-53
2022/06/01 05:03:53;;;;;;;4.27;3.97;;;;;;;;;;5023541;28;20189;-54
2022/06/01 05:06:19;;;;;;;4.77;4.37;;;;;;;;;;5028239;28;20678;-56
2022/06/01 05:08:46;;;;;;;4.60;4.20;;;;;;;;;;5022934;28;20476;-53
2022/06/01 05:11:15;;;;;;;4.73;4.33;;;;;;;;;;5016058;28;21062;-55
2022/06/01 05:13:41;;;;;;;4.80;4.30;;;;;;;;;;4996312;28;20218;-55
2022/06/01 05:16:08;;;;;;;4.70;4.30;;;;;;;;;;5019284;28;20189;-56
2022/06/01 05:18:34;;;;;;;4.87;4.37;;;;;;;;;;5025981;28;20174;-51
2022/06/01 05:21:00;;;;;;;4.63;4.23;;;;;;;;;;5019897;28;20332;-55
2022/06/01 05:23:27;;;;;;;5.20;4.37;;;;;;;;;;5020099;28;20296;-55
2022/06/01 05:25:54;;;;;;;4.90;4.50;;;;;;;;;;5008226;28;20445;-55
2022/06/01 05:28:22;;;;;;;4.90;4.60;;;;;;;;;;5004809;28;20614;-54
2022/06/01 05:30:48;;;;;;;4.70;4.30;;;;;;;;;;5003579;28;20675;-54
2022/06/01 05:33:14;;;;;;;5.90;4.50;;;;;;;;;;5008926;28;20884;-55
2022/06/01 05:35:41;;;;;;;4.70;4.20;;;;;;;;;;5002000;28;20182;-55
2022/06/01 05:38:10;;;;;;;4.53;4.13;;;;;;;;;;5028345;28;20596;-54
2022/06/01 05:40:36;;;;;;;4.90;4.50;;;;;;;;;;5027765;28;20598;-54
2022/06/01 05:43:10;;;;;;;4.80;4.20;;;;;;;;;;5027173;28;20548;-53
2022/06/01 05:45:36;;;;;;;4.87;4.47;;;;;;;;;;5025587;28;20288;-53
2022/06/01 05:48:02;;;;;;;5.70;5.20;;;;;;;;;;5028010;28;20253;-54
2022/06/01 05:50:29;;;;;;;4.70;4.03;;;;;;;;;;5024590;28;20220;-54
2022/06/01 05:52:55;;;;;;;5.90;4.37;;;;;;;;;;5024131;28;20182;-54
2022/06/01 05:55:21;;;;;;;4.93;4.23;;;;;;;;;;5024923;28;20169;-52
2022/06/01 05:57:47;;;;;;;5.67;4.37;;;;;;;;;;5019364;28;20189;-54
2022/06/01 06:00:16;;;;;;;4.87;4.37;;;;;;;;;;5001672;28;20276;-54
2022/06/01 06:02:42;;;;;;;4.67;4.27;;;;;;;;;;5006645;28;20614;-55
2022/06/01 06:07:56;;;;;;;7.73;4.67;;;;;;;;;;4974461;28;20185;-54
2022/06/01 06:10:22;;;;;;;4.70;4.30;;;;;;;;;;5021658;28;20203;-53
2022/06/01 06:12:49;;;;;;;5.43;4.43;;;;;;;;;;5025229;28;20679;-52
2022/06/01 06:15:15;;;;;;;4.40;4.00;;;;;;;;;;5005115;28;20196;-54
2022/06/01 06:17:41;;;;;;;5.17;4.67;;;;;;;;;;5026888;28;20268;-53
2022/06/01 06:20:08;;;;;;;7.53;4.97;;;;;;;;;;5024270;28;20277;-53
2022/06/01 06:22:34;;;;;;;5.67;4.80;;;;;;;;;;5008989;28;20213;-54
2022/06/01 06:25:00;;;;;;;5.10;4.60;;;;;;;;;;5025213;28;20625;-54
2022/06/01 06:27:27;;;;;;;4.90;3.87;;;;;;;;;;5027515;28;20725;-54
2022/06/01 06:29:53;;;;;;;6.63;4.60;;;;;;;;;;5024919;28;20244;-51
2022/06/01 06:32:20;;;;;;;6.23;4.53;;;;;;;;;;5024076;28;20200;-54
2022/06/01 06:34:46;;;;;;;5.67;4.40;;;;;;;;;;5025860;28;20272;-54
2022/06/01 06:37:12;;;;;;;4.83;4.33;;;;;;;;;;5005491;28;20217;-54
2022/06/01 06:39:38;;;;;;;4.57;4.17;;;;;;;;;;5021779;28;20319;-54
2022/06/01 06:42:04;;;;;;;5.27;4.30;;;;;;;;;;5021843;28;20559;-51
2022/06/01 06:44:33;;;;;;;5.57;5.00;;;;;;;;;;5021079;28;20516;-54
2022/06/01 06:46:59;;;;;;;7.73;4.53;;;;;;;;;;5023725;28;20205;-53
2022/06/01 06:49:26;;;;;;;4.77;4.37;;;;;;;;;;5008408;28;21750;-54
2022/06/01 06:51:52;;;;;;;6.03;5.43;;;;;;;;;;5007721;28;20188;-53
2022/06/01 06:54:18;;;;;;;7.30;5.23;;;;;;;;;;5006963;28;20212;-52
2022/06/01 06:56:44;;;;;;;5.40;4.30;;;;;;;;;;4992500;28;20185;-54
2022/06/01 06:59:16;;;;;;;5.40;4.90;;;;;;;;;;5025272;28;20166;-54
2022/06/01 07:01:42;;;;;;;4.40;4.00;;;;;;;;;;5024837;28;20643;-54
2022/06/01 07:04:08;;;;;;;5.67;5.13;;;;;;;;;;5006938;28;20317;-53
2022/06/01 07:06:34;;;;;;;5.87;5.30;;;;;;;;;;5004686;28;20206;-54
2022/06/01 07:09:03;;;;;;;6.10;5.50;;;;;;;;;;5005904;28;20186;-53
2022/06/01 07:11:30;;;;;;;8.13;5.43;;;;;;;;;;5025016;28;20683;-54
2022/06/01 07:13:56;;;;;;;6.13;5.53;;;;;;;;;;5024995;28;20353;-51
2022/06/01 07:16:24;;;;;;;5.73;4.93;;;;;;;;;;5006962;28;20197;-53
2022/06/01 07:18:51;;;;;;;4.70;4.20;;;;;;;;;;5025155;28;20189;-54
2022/06/01 07:21:18;;;;;;;6.73;5.30;;;;;;;;;;4999642;28;20183;-54
2022/06/01 07:23:45;;;;;;;6.53;4.70;;;;;;;;;;5023216;28;20200;-54
2022/06/01 07:26:13;;;;;;;7.90;4.97;;;;;;;;;;5002241;28;20206;-54
2022/06/01 07:28:39;;;;;;;6.43;5.40;;;;;;;;;;5025310;28;20596;-53
2022/06/01 07:31:06;;;;;;;8.40;6.10;;;;;;;;;;5002963;28;20244;-54
2022/06/01 07:33:33;;;;;;;7.63;4.73;;;;;;;;;;5016406;28;20185;-52
2022/06/01 07:36:00;;;;;;;5.10;4.60;;;;;;;;;;5007131;28;20186;-52
2022/06/01 07:44:08;;;;;;;6.30;5.07;;;;;;;;;;5021236;28;20231;-53
2022/06/01 07:46:35;;;;;;;5.07;4.03;;;;;;;;;;5025111;28;20469;-55
2022/06/01 07:49:01;;;;;;;5.73;4.17;;;;;;;;;;5025938;28;20205;-55
2022/06/01 07:51:27;;;;;;;4.53;3.90;;;;;;;;;;5021364;28;20185;-52
2022/06/01 07:53:54;;;;;;;5.33;4.30;;;;;;;;;;5025643;28;20189;-52
2022/06/01 07:56:20;;;;;;;6.07;4.30;;;;;;;;;;5027208;28;20567;-54
2022/06/01 07:58:46;;;;;;;4.63;4.17;;;;;;;;;;5007581;28;20196;-55
2022/06/01 08:01:12;;;;;;;4.97;4.10;;;;;;;;;;5029242;28;20526;-55
2022/06/01 08:03:38;;;;;;;5.93;4.03;;;;;;;;;;5016514;28;21024;-52
2022/06/01 08:06:05;;;;;;;7.47;4.07;;;;;;;;;;5005919;28;20312;-52
2022/06/01 08:08:31;;;;;;;4.17;3.77;;;;;;;;;;5021781;28;20174;-55
2022/06/01 08:10:59;;;;;;;4.30;3.90;;;;;;;;;;5017193;28;20572;-55
2022/06/01 08:13:25;;;;;;;5.97;3.67;;;;;;;;;;5020151;28;20178;-53
2022/06/01 08:15:52;;;;;;;4.20;3.77;;;;;;;;;;5017523;28;20194;-55
2022/06/01 08:18:20;;;;;;;4.70;3.50;;;;;;;;;;4992506;28;20201;-53
2022/06/01 08:20:47;;;;;;;3.60;3.27;;;;;;;;;;5004174;28;20186;-55
2022/06/01 08:23:13;;;;;;;3.90;3.50;;;;;;;;;;5010144;28;20189;-52
2022/06/01 08:25:41;;;;;;;4.17;3.70;;;;;;;;;;5003045;28;20218;-54
2022/06/01 08:28:07;;;;;;;3.90;3.33;;;;;;;;;;5010950;28;20272;-52
2022/06/01 08:30:34;;;;;;;3.90;3.00;;;;;;;;;;5008075;28;20186;-54
2022/06/01 08:33:01;;;;;;;3.87;3.30;;;;;;;;;;5026962;28;20252;-55
2022/06/01 08:35:28;;;;;;;3.60;3.07;;;;;;;;;;5024688;28;20186;-55
2022/06/01 08:37:54;;;;;;;3.17;2.87;;;;;;;;;;5028706;28;20186;-52
2022/06/01 08:40:26;;;;;;;4.17;3.53;;;;;;;;;;5008215;28;20481;-55
2022/06/01 08:42:55;;;;;;;3.77;3.40;;;;;;;;;;5008385;28;20182;-55
2022/06/01 08:45:26;;;;;;;5.17;3.03;;;;;;;;;;5018593;28;20249;-56
2022/06/01 08:47:52;;;;;;;3.40;3.10;;;;;;;;;;5029820;28;20146;-55
2022/06/01 08:50:25;;;;;;;4.10;3.10;;;;;;;;;;4997246;28;20623;-55
2022/06/01 08:52:51;;;;;;;6.00;3.73;;;;;;;;;;5004888;28;20186;-54
2022/06/01 08:55:18;;;;;;;4.53;2.90;;;;;;;;;;5027582;28;20707;-55
2022/06/01 08:57:44;;;;;;;6.00;3.43;;;;;;;;;;5023575;28;20246;-55
2022/06/01 09:00:15;;;;;;;4.80;2.80;;;;;;;;;;5027808;28;20189;-54
2022/06/01 09:03:00;;;;;;;3.73;3.07;;;;;;;;;;5011745;28;20269;-54
2022/06/01 09:05:38;;;;;;;3.87;3.33;;;;;;;;;;5023053;28;20275;-56
2022/06/01 09:08:23;;;;;;;5.90;3.50;;;;;;;;;;5011148;28;20189;-53
2022/06/01 09:11:03;;;;;;;3.33;3.03;;;;;;;;;;4993643;28;20272;-55
2022/06/01 09:13:34;;;;;;;3.83;2.80;;;;;;;;;;5027920;28;20166;-52
2022/06/01 09:16:07;;;;;;;2.90;2.70;;;;;;;;;;5013060;28;20570;-55
2022/06/01 09:18:43;;;;;;;5.47;2.73;;;;;;;;;;5023005;28;20186;-55
2022/06/01 09:24:11;;;;;;;3.23;2.80;;;;;;;;;;5028403;28;20307;-54
2022/06/01 09:26:49;;;;;;;3.43;2.30;;;;;;;;;;5021612;28;20209;-56
2022/06/01 09:29:19;;;;;;;2.53;2.33;;;;;;;;;;5025213;28;20192;-56
2022/06/01 09:31:47;;;;;;;2.67;2.47;;;;;;;;;;5024055;28;20600;-56
2022/06/01 09:34:15;;;;;;;2.33;2.13;;;;;;;;;;5026476;28;20189;-56
2022/06/01 09:36:49;;;;;;;2.90;2.40;;;;;;;;;;5011403;28;20665;-56
2022/06/01 09:39:19;;;;;;;3.07;2.50;;;;;;;;;;5025729;28;20174;-57
2022/06/01 09:41:45;;;;;;;7.70;3.07;;;;;;;;;;5018369;28;20212;-60
2022/06/01 09:44:18;;;;;;;2.80;2.30;;;;;;;;;;5024905;28;20206;-57
2022/06/01 09:46:50;;;;;;;2.50;2.30;;;;;;;;;;5023746;28;20311;-57
2022/06/01 09:49:25;;;;;;;3.20;2.50;;;;;;;;;;5008856;28;20189;-57
2022/06/01 09:51:56;;;;;;;3.07;2.57;;;;;;;;;;5009928;28;20193;-57
2022/06/01 09:54:22;;;;;;;3.57;2.40;;;;;;;;;;5024324;28;20655;-55
2022/06/01 09:56:49;;;;;;;2.80;2.00;;;;;;;;;;5009645;28;20186;-57
2022/06/01 10:08:02;;;;;;;2.90;2.47;;;;;;;;;;5016499;28;20334;-58
2022/06/01 10:10:29;;;;;;;3.60;2.42;;;;;;;;;;5027323;28;20419;-57
2022/06/01 10:12:56;;;;;;;2.77;2.57;;;;;;;;;;5027919;28;20246;-57
2022/06/01 10:15:35;;;;;;;3.63;2.00;;;;;;;;;;5024512;28;20181;-57
2022/06/01 10:18:07;;;;;;;2.20;2.00;;;;;;;;;;5007834;28;20262;-54
2022/06/01 10:20:35;;;;;;;2.77;2.20;;;;;;;;;;5027012;28;20251;-56
2022/06/01 10:23:04;;;;;;;2.53;2.10;;;;;;;;;;5026281;28;20331;-56
2022/06/01 10:25:39;;;;;;;2.50;2.30;;;;;;;;;;5009424;28;20248;-55
2022/06/01 10:28:07;;;;;;;2.87;2.30;;;;;;;;;;5026993;28;20194;-55
2022/06/01 10:30:37;;;;;;;2.97;2.33;;;;;;;;;;5026995;28;20178;-55
2022/06/01 10:33:08;;;;;;;3.23;2.40;;;;;;;;;;5027613;28;20167;-54
2022/06/01 10:35:34;;;;;;;2.20;2.00;;;;;;;;;;5025455;28;20537;-53
2022/06/01 10:38:10;;;;;;;2.33;2.13;;;;;;;;;;5007296;28;20256;-54
2022/06/01 10:40:49;;;;;;;3.17;2.43;;;;;;;;;;5013367;28;20186;-54
2022/06/01 10:43:21;;;;;;;2.33;2.10;;;;;;;;;;5020407;28;20276;-55
2022/06/01 10:45:50;;;;;;;2.90;2.43;;;;;;;;;;5025552;28;20217;-56
2022/06/01 10:48:23;;;;;;;3.30;2.30;;;;;;;;;;5025920;28;20574;-54
2022/06/01 10:50:53;;;;;;;2.87;2.00;;;;;;;;;;5021125;28;20169;-56
2022/06/01 10:53:28;;;;;;;2.37;2.17;;;;;;;;;;5026089;28;20177;-56
2022/06/01 10:55:54;;;;;;;3.00;2.10;;;;;;;;;;5008553;28;20198;-56
2022/06/01 10:58:22;;;;;;;2.80;2.40;;;;;;;;;;5021929;28;20185;-55
2022/06/01 11:00:49;;;;;;;4.47;2.40;;;;;;;;;;5008760;28;20552;-56
2022/06/01 11:03:18;;;;;;;2.50;2.30;;;;;;;;;;5025826;28;20189;-55
2022/06/01 11:05:50;;;;;;;4.63;2.00;;;;;;;;;;5025488;28;20237;-55
2022/06/01 11:08:43;;;;;;;3.80;2.23;;;;;;;;;;5024890;28;20905;-56
2022/06/01 11:11:18;;;;;;;4.63;2.33;;;;;;;;;;4959881;28;20693;-56
2022/06/01 11:13:44;;;;;;;3.37;2.07;;;;;;;;;;4988760;28;20269;-56
2022/06/01 11:16:29;;;;;;;2.83;2.13;;;;;;;;;;5027125;28;20738;-56
2022/06/01 11:18:55;;;;;;;2.20;2.00;;;;;;;;;;5033237;28;20339;-53
2022/06/01 11:21:21;;;;;;;4.53;2.30;;;;;;;;;;5024824;28;20205;-51
2022/06/01 11:24:03;;;;;;;3.50;2.23;;;;;;;;;;5029861;28;20191;-51
2022/06/01 11:26:29;;;;;;;3.07;2.13;;;;;;;;;;5020041;28;20295;-49
2022/06/01 11:29:14;;;;;;;4.10;2.77;;;;;;;;;;5020175;28;20178;-50
2022/06/01 11:31:42;;;;;;;3.53;2.67;;;;;;;;;;5014225;28;20179;-50
2022/06/01 11:34:20;;;;;;;3.60;1.93;;;;;;;;;;5009141;28;20299;-51
2022/06/01 11:37:01;;;;;;;3.37;2.40;;;;;;;;;;5026694;28;20545;-51
2022/06/01 11:39:27;;;;;;;4.93;2.60;;;;;;;;;;5020273;28;20285;-51
2022/06/01 11:41:59;;;;;;;3.07;2.40;;;;;;;;;;5027282;28;20537;-52
2022/06/01 11:44:32;;;;;;;3.17;2.20;;;;;;;;;;5018395;28;20684;-51
2022/06/01 11:47:09;;;;;;;2.57;2.20;;;;;;;;;;5007481;28;20209;-51
2022/06/01 11:49:42;;;;;;;4.27;2.60;;;;;;;;;;5022519;28;20233;-49
2022/06/01 11:52:31;;;;;;;2.23;1.97;;;;;;;;;;4989912;28;20154;-50
2022/06/01 11:55:13;;;;;;;2.07;1.83;;;;;;;;;;4997945;28;20190;-50
2022/06/01 11:57:47;;;;;;;2.70;2.50;;;;;;;;;;5007040;28;20595;-50
2022/06/01 12:00:20;;;;;;;2.37;2.17;;;;;;;;;;5011188;28;20671;-51
2022/06/01 12:02:50;;;;;;;3.47;1.77;;;;;;;;;;5024622;28;20636;-51
2022/06/01 12:05:28;;;;;;;3.20;2.00;;;;;;;;;;5019128;28;20648;-51
2022/06/01 12:07:58;;;;;;;3.27;2.30;;;;;;;;;;5009970;28;20190;-51
2022/06/01 12:10:24;;;;;;;2.37;2.10;;;;;;;;;;5005338;28;20197;-51
2022/06/01 12:12:53;;;;;;;2.33;1.80;;;;;;;;;;5020852;28;20243;-51
2022/06/01 12:15:19;;;;;;;3.97;1.90;;;;;;;;;;5004491;28;20604;-51
2022/06/01 12:18:05;;;;;;;4.03;1.90;;;;;;;;;;5023809;28;20651;-51
2022/06/01 12:20:34;;;;;;;2.10;1.90;;;;;;;;;;5008771;28;20196;-50
2022/06/01 12:29:12;;;;;;;3.70;2.50;;;;;;;;;;5023095;28;20264;-51
2022/06/01 12:31:40;;;;;;;3.67;2.43;;;;;;;;;;5023555;28;20488;-51
2022/06/01 12:34:41;;;;;;;4.03;2.30;;;;;;;;;;5025068;28;20232;-50
2022/06/01 12:37:10;;;;;;;2.33;2.13;;;;;;;;;;4963358;28;20301;-51
2022/06/01 12:39:39;;;;;;;3.10;2.20;;;;;;;;;;5014230;28;20670;-50
2022/06/01 12:42:05;;;;;;;2.50;2.30;;;;;;;;;;5027755;28;20606;-50
2022/06/01 12:44:34;;;;;;;2.13;1.93;;;;;;;;;;5003333;28;20185;-50
2022/06/01 12:47:00;;;;;;;2.60;2.40;;;;;;;;;;5023143;28;20216;-51
2022/06/01 12:49:33;;;;;;;3.10;2.20;;;;;;;;;;5022605;28;20210;-50
2022/06/01 12:52:04;;;;;;;2.57;2.37;;;;;;;;;;5009834;28;20186;-50
2022/06/01 12:54:33;;;;;;;2.80;2.20;;;;;;;;;;5006016;28;20174;-50
2022/06/01 12:56:59;;;;;;;2.60;1.97;;;;;;;;;;5015470;28;20259;-50
2022/06/01 12:59:29;;;;;;;2.73;2.53;;;;;;;;;;5026497;28;20202;-49
2022/06/01 13:02:00;;;;;;;2.37;2.17;;;;;;;;;;5029305;28;20627;-50
2022/06/01 13:04:27;;;;;;;2.40;2.00;;;;;;;;;;5021876;28;20288;-50
2022/06/01 13:06:53;;;;;;;3.40;2.10;;;;;;;;;;5024552;28;20710;-50
2022/06/01 13:09:22;;;;;;;2.10;2.00;;;;;;;;;;5030820;28;20173;-50
2022/06/01 13:11:58;;;;;;;2.20;2.10;;;;;;;;;;5029096;28;20242;-50
2022/06/01 13:14:25;;;;;;;2.13;2.00;;;;;;;;;;5023758;28;20184;-50
2022/06/01 13:16:52;;;;;;;2.23;2.03;;;;;;;;;;5020480;28;20196;-49
2022/06/01 13:19:18;;;;;;;2.10;2.00;;;;;;;;;;5027914;28;20691;-50
2022/06/01 13:21:46;;;;;;;2.60;2.40;;;;;;;;;;5029522;28;20173;-49
2022/06/01 13:24:13;;;;;;;2.43;2.23;;;;;;;;;;5022301;28;20234;-49
2022/06/01 13:26:52;;;;;;;2.10;1.90;;;;;;;;;;5010960;28;20316;-49
2022/06/01 13:29:22;;;;;;;2.20;2.10;;;;;;;;;;5007585;28;20254;-49
2022/06/01 13:31:50;;;;;;;2.10;2.00;;;;;;;;;;4994847;28;20264;-50
2022/06/01 13:34:39;;;;;;;1.90;1.80;;;;;;;;;;5027321;28;20237;-50
2022/06/01 13:37:09;;;;;;;2.20;2.00;;;;;;;;;;5013578;28;20236;-50
2022/06/01 13:39:36;;;;;;;2.80;1.70;;;;;;;;;;5007528;28;20186;-50
2022/06/01 13:42:03;;;;;;;2.60;2.40;;;;;;;;;;5010532;28;20592;-50
2022/06/01 13:44:45;;;;;;;2.63;2.33;;;;;;;;;;5026081;28;20211;-50
2022/06/01 13:47:12;;;;;;;2.47;2.37;;;;;;;;;;5010992;28;20190;-50
2022/06/01 13:49:42;;;;;;;2.50;2.30;;;;;;;;;;5028511;28;20395;-49
2022/06/01 13:52:09;;;;;;;2.63;2.43;;;;;;;;;;5010036;28;20268;-50
2022/06/01 13:54:38;;;;;;;2.50;2.40;;;;;;;;;;5006279;28;20182;-51
2022/06/01 13:57:16;;;;;;;3.07;2.63;;;;;;;;;;5022171;28;20559;-51
2022/06/01 14:00:04;;;;;;;4.07;3.87;;;;;;;;;;5023541;28;20181;-52
2022/06/01 14:02:49;;;;;;;3.10;2.73;;;;;;;;;;5027646;28;20629;-52
2022/06/01 14:05:17;;;;;;;2.90;2.70;;;;;;;;;;4997651;28;20208;-52
2022/06/01 14:07:47;;;;;;;3.07;2.80;;;;;;;;;;5025602;28;20197;-52
2022/06/01 14:10:14;;;;;;;3.00;2.80;;;;;;;;;;5008309;28;20675;-52
2022/06/01 14:12:41;;;;;;;2.97;2.77;;;;;;;;;;5025629;28;20217;-53
2022/06/01 14:15:09;;;;;;;3.77;2.87;;;;;;;;;;5006162;28;20705;-50
2022/06/01 14:17:40;;;;;;;3.10;2.90;;;;;;;;;;5002105;28;20185;-53
2022/06/01 14:20:06;;;;;;;3.10;2.90;;;;;;;;;;5024782;28;20186;-52
2022/06/01 14:22:33;;;;;;;3.00;2.80;;;;;;;;;;5027501;28;20404;-53
2022/06/01 14:30:28;;;;;;;2.70;2.50;;;;;;;;;;5022962;28;20196;-50
2022/06/01 14:32:56;;;;;;;3.00;2.80;;;;;;;;;;5027270;28;20182;-53
2022/06/01 14:35:22;;;;;;;3.03;2.83;;;;;;;;;;5006953;28;20190;-53
2022/06/01 14:37:48;;;;;;;2.90;2.70;;;;;;;;;;5024950;28;20190;-53
2022/06/01 14:40:15;;;;;;;4.40;3.20;;;;;;;;;;5003185;28;20182;-52
2022/06/01 14:42:41;;;;;;;2.80;2.60;;;;;;;;;;5002632;28;20189;-50
2022/06/01 14:45:08;;;;;;;4.03;3.30;;;;;;;;;;5023095;28;20710;-53
2022/06/01 14:47:34;;;;;;;3.53;2.90;;;;;;;;;;5019162;28;20261;-50
2022/06/01 14:50:00;;;;;;;4.43;3.43;;;;;;;;;;5023758;28;20216;-51
2022/06/01 14:52:26;;;;;;;4.37;3.90;;;;;;;;;;5003462;28;20732;-54
2022/06/01 14:54:53;;;;;;;4.07;3.40;;;;;;;;;;5015663;28;20813;-51
2022/06/01 14:57:20;;;;;;;4.03;3.27;;;;;;;;;;5006348;28;20254;-52
2022/06/01 14:59:46;;;;;;;4.80;3.73;;;;;;;;;;5009158;28;20640;-52
2022/06/01 15:02:17;;;;;;;3.73;3.40;;;;;;;;;;5001025;28;20196;-50
2022/06/01 15:04:45;;;;;;;3.30;3.00;;;;;;;;;;4992998;28;20296;-52
2022/06/01 15:07:11;;;;;;;3.10;2.80;;;;;;;;;;5025937;28;20631;-52
2022/06/01 15:09:38;;;;;;;3.90;3.03;;;;;;;;;;5025839;28;20185;-52
2022/06/01 15:12:06;;;;;;;2.70;2.50;;;;;;;;;;5020130;28;20715;-52
2022/06/01 15:14:32;;;;;;;2.90;2.70;;;;;;;;;;4983464;28;20212;-52
2022/06/01 15:17:02;;;;;;;5.10;2.70;;;;;;;;;;5018113;28;20181;-52
2022/06/01 15:19:32;;;;;;;2.97;2.70;;;;;;;;;;5013665;28;20751;-52
2022/06/01 15:21:58;;;;;;;3.10;2.80;;;;;;;;;;5000101;28;20663;-50
2022/06/01 15:24:25;;;;;;;3.70;2.50;;;;;;;;;;5017805;28;20264;-51
2022/06/01 15:26:52;;;;;;;2.80;2.53;;;;;;;;;;4999481;28;20640;-51
2022/06/01 15:40:33;;;;;;;3.83;2.97;;;;;;;;;;5017471;28;20194;-51
2022/06/01 15:42:59;;;;;;;3.13;2.90;;;;;;;;;;4996834;28;20177;-51
2022/06/01 15:45:28;;;;;;;3.57;2.53;;;;;;;;;;4994944;28;20225;-50
2022/06/01 15:47:55;;;;;;;3.37;2.60;;;;;;;;;;5001761;28;20174;-50